Time;durP1;ratioP1;P1;durP2;ratioP2;P2;SDS_P1;SDS_P2;PMS_P1;PMS_P2;Temp;Humidity;BMP_temperature;BMP_pressure;BME280_temperature;BME280_humidity;BME280_pressure;Samples;Min_cycle;Max_cycle;Signal;HPM_P1;HPM_P2
2021/03/30 00:02:12;;;;;;;20.52;10.50;;;;;;;14.46;36.55;102968.72;4893936;28;123594;-72
2021/03/30 00:04:39;;;;;;;19.23;11.00;;;;;;;14.41;36.65;102976.00;4894064;28;124192;-72
2021/03/30 00:07:06;;;;;;;17.80;10.80;;;;;;;14.35;36.72;102970.81;4881597;28;114597;-72
2021/03/30 00:09:32;;;;;;;17.70;11.65;;;;;;;14.30;36.72;102967.41;4893069;28;114595;-72
2021/03/30 00:12:00;;;;;;;20.67;11.18;;;;;;;14.28;36.77;102958.56;4877195;28;123805;-72
2021/03/30 00:14:26;;;;;;;21.58;12.23;;;;;;;14.25;37.15;102970.19;4876013;28;122942;-72
2021/03/30 00:16:53;;;;;;;19.85;11.82;;;;;;;14.21;37.04;102964.06;4875502;28;115543;-72
2021/03/30 00:19:19;;;;;;;20.70;11.73;;;;;;;14.21;37.07;102972.06;4876291;28;114901;-72
2021/03/30 00:21:46;;;;;;;20.48;11.75;;;;;;;14.19;37.04;102976.56;4875810;28;123659;-72
2021/03/30 00:24:13;;;;;;;20.08;12.48;;;;;;;14.18;37.04;102969.50;4893726;28;124249;-72
2021/03/30 00:26:39;;;;;;;23.50;13.10;;;;;;;14.16;37.24;102965.97;4892638;28;114741;-72
2021/03/30 00:29:07;;;;;;;20.52;12.07;;;;;;;14.15;37.21;102964.22;4873151;28;112781;-72
2021/03/30 00:31:33;;;;;;;18.25;11.98;;;;;;;14.13;37.05;102971.38;4891797;28;124293;-72
2021/03/30 00:34:00;;;;;;;21.77;13.15;;;;;;;14.09;37.31;102964.41;4873239;28;123743;-72
2021/03/30 00:36:27;;;;;;;23.48;12.30;;;;;;;14.07;37.48;102971.56;4869154;28;115050;-72
2021/03/30 00:38:53;;;;;;;24.92;13.35;;;;;;;14.04;37.46;102976.97;4873451;28;114018;-72
2021/03/30 00:41:20;;;;;;;21.33;12.02;;;;;;;14.01;37.61;102971.69;4869977;28;124422;-72
2021/03/30 00:43:46;;;;;;;21.63;13.43;;;;;;;13.96;37.54;102968.28;4861200;28;122754;-72
2021/03/30 00:46:16;;;;;;;22.67;13.55;;;;;;;13.91;37.57;102972.84;4892877;28;115296;-72
2021/03/30 00:48:50;;;;;;;22.55;13.50;;;;;;;13.86;37.83;102966.75;4860415;28;113280;-73
2021/03/30 00:51:18;;;;;;;22.37;12.90;;;;;;;13.82;37.74;102972.19;4866735;28;123346;-72
2021/03/30 00:54:03;;;;;;;24.25;13.50;;;;;;;13.77;37.59;102968.75;4891167;28;125230;-72
2021/03/30 00:56:36;;;;;;;23.35;13.02;;;;;;;13.71;37.98;102974.22;4866350;28;112380;-72
2021/03/30 00:59:03;;;;;;;24.50;13.80;;;;;;;13.68;37.95;102963.63;4893184;28;113835;-72
2021/03/30 01:01:30;;;;;;;25.45;14.35;;;;;;;13.65;38.26;102963.69;4892829;28;124736;-72
2021/03/30 01:03:56;;;;;;;21.55;13.23;;;;;;;13.63;38.16;102965.53;4893025;28;124671;-72
2021/03/30 01:06:24;;;;;;;25.63;13.43;;;;;;;13.63;38.24;102968.19;4871869;28;115500;-72
2021/03/30 01:09:09;;;;;;;23.65;14.10;;;;;;;13.60;38.16;102960.28;4875672;28;113161;-72
2021/03/30 01:12:07;;;;;;;23.47;13.43;;;;;;;13.55;38.44;102967.50;4875755;28;124117;-72
2021/03/30 01:15:15;;;;;;;20.33;12.68;;;;;;;13.49;38.38;102967.66;4889606;28;123960;-72
2021/03/30 01:17:44;;;;;;;24.42;13.52;;;;;;;13.40;38.43;102964.28;4862345;28;113547;-72
2021/03/30 01:20:37;;;;;;;22.17;13.15;;;;;;;13.34;38.87;102964.41;4875339;28;113323;-72
2021/03/30 01:23:15;;;;;;;21.02;12.57;;;;;;;13.24;38.54;102963.72;4889408;28;123425;-72
2021/03/30 01:25:47;;;;;;;23.00;13.23;;;;;;;13.16;38.98;102960.34;4889916;28;123830;-72
2021/03/30 01:29:12;;;;;;;23.80;12.82;;;;;;;13.05;38.92;102965.91;4892935;28;115233;-72
2021/03/30 01:31:41;;;;;;;23.27;12.82;;;;;;;12.96;38.87;102968.75;4840279;29;114583;-72
2021/03/30 01:34:11;;;;;;;24.50;13.23;;;;;;;12.90;39.17;102968.88;4879430;28;124676;-72
2021/03/30 01:36:40;;;;;;;24.05;13.32;;;;;;;12.83;39.56;102970.78;4873999;28;123005;-72
2021/03/30 01:39:13;;;;;;;22.38;12.63;;;;;;;12.77;39.72;102978.00;4881511;28;113236;-72
2021/03/30 01:41:44;;;;;;;23.85;13.65;;;;;;;12.71;39.57;102978.13;4877843;28;113597;-72
2021/03/30 01:44:12;;;;;;;23.55;12.35;;;;;;;12.65;39.59;102972.03;4891260;28;124360;-72
2021/03/30 01:46:40;;;;;;;24.25;12.90;;;;;;;12.60;39.80;102971.25;4869787;28;122734;-72
2021/03/30 01:49:08;;;;;;;23.85;13.05;;;;;;;12.54;39.88;102976.66;4874650;28;113881;-72
2021/03/30 01:51:36;;;;;;;21.10;12.93;;;;;;;12.47;39.99;102964.44;4892410;28;114371;-72
2021/03/30 01:54:06;;;;;;;20.27;13.10;;;;;;;12.41;40.15;102959.19;4892056;28;124209;-72
2021/03/30 01:56:35;;;;;;;24.60;14.40;;;;;;;12.38;40.22;102969.91;4891429;28;124733;-72
2021/03/30 01:59:03;;;;;;;21.75;13.05;;;;;;;12.32;40.32;102965.59;4876067;28;115637;-72
2021/03/30 02:01:31;;;;;;;23.75;13.38;;;;;;;12.29;40.16;102962.09;4892765;28;115554;-73
2021/03/30 02:03:59;;;;;;;20.73;13.73;;;;;;;12.24;40.69;102968.38;4857943;28;123318;-72
2021/03/30 02:06:27;;;;;;;24.58;14.35;;;;;;;12.22;40.52;102970.19;4887896;28;123960;-72
2021/03/30 02:09:00;;;;;;;25.38;13.85;;;;;;;12.18;40.79;102963.16;4890987;28;114179;-72
2021/03/30 02:11:31;;;;;;;23.42;13.55;;;;;;;12.15;40.67;102968.53;4868902;28;113079;-72
2021/03/30 02:13:59;;;;;;;26.23;13.80;;;;;;;12.10;41.01;102974.84;4892307;28;123942;-72
2021/03/30 02:16:30;;;;;;;24.83;13.57;;;;;;;12.03;41.15;102972.25;4861248;28;123323;-72
2021/03/30 02:19:12;;;;;;;21.95;13.43;;;;;;;11.97;41.37;102974.16;4877495;28;113386;-72
2021/03/30 02:21:44;;;;;;;27.38;14.60;;;;;;;11.88;41.35;102970.72;4865926;28;114016;-72
2021/03/30 02:24:12;;;;;;;24.88;13.93;;;;;;;11.79;41.33;102970.88;4891841;28;124782;-72
2021/03/30 02:26:42;;;;;;;27.48;13.73;;;;;;;11.72;41.32;102971.88;4876835;28;124378;-72
2021/03/30 02:29:15;;;;;;;26.65;13.82;;;;;;;11.65;41.64;102978.16;4866989;28;113482;-72
2021/03/30 02:31:42;;;;;;;25.38;13.98;;;;;;;11.60;41.76;102969.38;4877959;28;113297;-72
2021/03/30 02:34:11;;;;;;;23.60;13.35;;;;;;;11.55;42.10;102971.25;4895740;28;124119;-72
2021/03/30 02:36:39;;;;;;;22.50;13.13;;;;;;;11.53;41.89;102967.72;4870935;28;123386;-72
2021/03/30 02:39:09;;;;;;;24.48;14.25;;;;;;;11.49;41.78;102962.47;4888405;28;114201;-72
2021/03/30 02:41:38;;;;;;;26.10;13.73;;;;;;;11.47;41.88;102964.28;4895508;28;114196;-72
2021/03/30 02:44:08;;;;;;;23.10;13.90;;;;;;;11.44;41.54;102958.13;4895401;28;124011;-72
2021/03/30 02:46:35;;;;;;;26.13;13.30;;;;;;;11.39;41.53;102959.97;4879323;28;124160;-72
2021/03/30 02:49:02;;;;;;;24.23;13.90;;;;;;;11.32;41.72;102953.91;4887158;28;115174;-72
2021/03/30 02:51:31;;;;;;;26.80;14.43;;;;;;;11.26;41.90;102953.97;4877870;28;115008;-72
2021/03/30 02:53:58;;;;;;;23.38;13.63;;;;;;;11.19;42.01;102952.28;4877424;28;124888;-72
2021/03/30 02:56:26;;;;;;;25.73;14.75;;;;;;;11.14;42.31;102954.13;4893893;28;124769;-72
2021/03/30 02:58:53;;;;;;;24.67;14.00;;;;;;;11.09;42.22;102957.75;4895443;28;114241;-72
2021/03/30 03:01:22;;;;;;;23.67;13.50;;;;;;;11.03;42.44;102957.78;4886891;28;113120;-72
2021/03/30 03:03:52;;;;;;;24.58;13.57;;;;;;;10.98;42.21;102957.00;4894670;28;124306;-72
2021/03/30 03:06:20;;;;;;;22.23;14.15;;;;;;;10.92;42.41;102954.41;4893984;28;123486;-72
2021/03/30 03:08:48;;;;;;;26.67;14.23;;;;;;;10.88;42.53;102960.66;4883496;28;114370;-72
2021/03/30 03:11:16;;;;;;;26.27;14.30;;;;;;;10.84;43.02;102961.59;4894612;28;113808;-72
2021/03/30 03:13:45;;;;;;;23.83;13.90;;;;;;;10.82;42.77;102968.69;4876889;28;124148;-74
2021/03/30 03:16:12;;;;;;;31.48;15.25;;;;;;;10.79;42.78;102968.69;4875830;28;123825;-74
2021/03/30 03:18:41;;;;;;;27.52;14.98;;;;;;;10.74;43.45;102965.22;4860509;28;113462;-72
2021/03/30 03:21:09;;;;;;;28.77;15.05;;;;;;;10.71;43.22;102967.00;4915459;23;113226;-72
2021/03/30 03:23:38;;;;;;;28.08;14.52;;;;;;;10.67;43.55;102960.00;4899710;28;123533;-72
2021/03/30 03:26:07;;;;;;;33.28;15.45;;;;;;;10.62;43.60;102967.09;4903324;28;123147;-72
2021/03/30 03:28:41;;;;;;;27.58;14.95;;;;;;;10.60;43.64;102968.91;4901301;28;114731;-72
2021/03/30 03:31:09;;;;;;;26.88;15.38;;;;;;;10.57;43.48;102966.31;4894805;28;114581;-72
2021/03/30 03:33:35;;;;;;;28.17;15.65;;;;;;;10.55;43.56;102970.75;4895841;28;124259;-72
2021/03/30 03:36:09;;;;;;;27.05;15.88;;;;;;;10.53;44.03;102972.53;4891385;28;123793;-72
2021/03/30 03:38:38;;;;;;;31.60;15.93;;;;;;;10.51;43.61;102982.28;4878693;28;114213;-72
2021/03/30 03:41:06;;;;;;;27.15;14.90;;;;;;;10.48;44.03;102985.81;4895196;28;114763;-72
2021/03/30 03:43:34;;;;;;;28.95;16.05;;;;;;;10.46;44.07;102976.13;4878215;28;123614;-72
2021/03/30 03:46:00;;;;;;;30.92;15.85;;;;;;;10.45;44.24;102979.66;4894561;28;123946;-72
2021/03/30 03:48:27;;;;;;;28.52;15.40;;;;;;;10.44;43.80;102983.22;4889635;28;114034;-72
2021/03/30 03:51:00;;;;;;;29.52;15.45;;;;;;;10.41;44.16;102977.94;4887731;28;114017;-72
2021/03/30 03:53:28;;;;;;;25.73;14.65;;;;;;;10.40;43.85;102984.16;4893361;28;124298;-72
2021/03/30 03:55:56;;;;;;;27.83;15.05;;;;;;;10.37;44.37;102981.53;4877768;28;123759;-72
2021/03/30 03:58:26;;;;;;;25.08;14.25;;;;;;;10.36;43.68;102979.75;4877645;28;113188;-72
2021/03/30 04:00:53;;;;;;;28.88;13.02;;;;;;;10.32;43.60;102974.50;4895280;28;115999;-72
2021/03/30 04:03:26;;;;;;;25.27;12.85;;;;;;;10.28;43.81;102972.75;4894227;28;123792;-72
2021/03/30 04:06:10;;;;;;;24.35;13.15;;;;;;;10.22;43.81;102972.78;4880647;28;124253;-72
2021/03/30 04:08:44;;;;;;;23.73;12.55;;;;;;;10.15;43.59;102971.09;4877962;28;114078;-72
2021/03/30 04:11:11;;;;;;;21.70;12.18;;;;;;;10.08;43.79;102969.41;4878035;28;113478;-72
2021/03/30 04:13:39;;;;;;;23.95;11.93;;;;;;;10.01;43.93;102978.28;4895192;28;123778;-72
2021/03/30 04:16:06;;;;;;;24.30;13.48;;;;;;;9.94;44.04;102982.75;4894223;28;123979;-72
2021/03/30 04:18:37;;;;;;;26.67;13.68;;;;;;;9.88;44.07;102978.38;4878173;28;114524;-72
2021/03/30 04:21:06;;;;;;;24.60;13.85;;;;;;;9.81;44.32;102976.66;4895063;28;114422;-72
2021/03/30 04:23:40;;;;;;;27.40;14.50;;;;;;;9.77;44.18;102988.16;4894587;28;124044;-72
2021/03/30 04:26:07;;;;;;;28.73;14.63;;;;;;;9.71;44.39;102983.78;4877335;28;123604;-72
2021/03/30 04:28:33;;;;;;;26.75;14.35;;;;;;;9.68;44.43;102985.56;4894696;28;114099;-72
2021/03/30 04:31:00;;;;;;;27.92;13.95;;;;;;;9.65;44.82;102990.91;4895013;28;115116;-72
2021/03/30 04:33:27;;;;;;;27.33;15.13;;;;;;;9.60;44.82;102987.41;4894650;28;124554;-72
2021/03/30 04:35:53;;;;;;;28.80;14.23;;;;;;;9.53;44.59;102992.75;4877367;28;123783;-72
2021/03/30 04:38:20;;;;;;;27.42;13.68;;;;;;;9.46;44.85;102991.00;4894164;28;114369;-71
2021/03/30 04:40:52;;;;;;;28.08;14.30;;;;;;;9.39;45.09;102989.28;4877627;28;112958;-72
2021/03/30 04:43:21;;;;;;;28.90;14.35;;;;;;;9.35;44.94;102995.47;4875611;28;123853;-72
2021/03/30 04:45:47;;;;;;;30.95;14.70;;;;;;;9.32;44.97;102992.84;4894090;28;123804;-71
2021/03/30 04:48:14;;;;;;;28.95;14.80;;;;;;;9.29;45.29;102992.88;4895164;28;114957;-72
2021/03/30 04:50:42;;;;;;;32.28;14.85;;;;;;;9.25;45.52;103001.69;4878339;28;114031;-72
2021/03/30 04:53:09;;;;;;;27.52;15.40;;;;;;;9.21;45.29;102994.66;4877667;28;123933;-72
2021/03/30 04:55:37;;;;;;;34.33;15.35;;;;;;;9.15;45.19;102996.47;4875969;28;124161;-72
2021/03/30 04:58:04;;;;;;;31.58;15.63;;;;;;;9.11;45.56;102999.97;4894299;28;114515;-72
2021/03/30 05:00:31;;;;;;;34.38;14.35;;;;;;;9.06;45.58;103009.72;4894661;28;114042;-72
2021/03/30 05:02:57;;;;;;;37.40;15.18;;;;;;;9.03;45.83;103001.78;4894659;28;124104;-72
2021/03/30 05:05:24;;;;;;;30.98;15.43;;;;;;;9.00;45.81;103015.00;4893302;28;124611;-72
2021/03/30 05:07:50;;;;;;;31.42;16.08;;;;;;;8.98;45.73;103014.13;4891819;28;114481;-72
2021/03/30 05:10:17;;;;;;;32.45;16.08;;;;;;;8.96;45.90;103015.91;4892479;28;111518;-72
2021/03/30 05:12:44;;;;;;;32.83;16.23;;;;;;;8.94;46.06;103017.69;4875604;28;123988;-72
2021/03/30 05:15:11;;;;;;;28.30;15.00;;;;;;;8.92;45.94;103019.44;4892608;28;122596;-72
2021/03/30 05:17:38;;;;;;;28.75;15.13;;;;;;;8.89;46.10;103027.38;4873478;28;115552;-72
2021/03/30 05:20:06;;;;;;;31.23;15.40;;;;;;;8.88;46.31;103023.00;4894312;28;114997;-71
2021/03/30 05:22:33;;;;;;;32.60;15.23;;;;;;;8.86;45.98;103028.28;4894341;28;124813;-71
2021/03/30 05:25:01;;;;;;;30.17;15.80;;;;;;;8.85;46.11;103033.56;4892960;28;123796;-74
2021/03/30 05:27:28;;;;;;;31.75;15.55;;;;;;;8.83;46.47;103035.31;4894783;28;114559;-74
2021/03/30 05:29:55;;;;;;;31.75;15.55;;;;;;;8.82;46.22;103041.50;4892431;28;113538;-74
2021/03/30 05:32:22;;;;;;;30.70;15.20;;;;;;;8.80;46.57;103040.59;4876093;28;122931;-74
2021/03/30 05:34:50;;;;;;;32.22;14.65;;;;;;;8.80;46.35;103045.88;4893320;28;123204;-75
2021/03/30 05:37:17;;;;;;;38.72;16.67;;;;;;;8.80;46.58;103045.88;4892957;28;114961;-74
2021/03/30 05:39:44;;;;;;;31.55;15.30;;;;;;;8.77;46.55;103042.38;4894551;28;114029;-74
2021/03/30 05:42:14;;;;;;;34.45;15.43;;;;;;;8.76;47.08;103051.19;4895642;28;124369;-72
2021/03/30 05:44:42;;;;;;;33.88;15.18;;;;;;;8.74;46.53;103042.41;4908105;28;123848;-72
2021/03/30 05:47:21;;;;;;;30.90;15.18;;;;;;;8.74;46.53;103046.81;4897324;28;115041;-72
2021/03/30 05:49:49;;;;;;;33.10;15.70;;;;;;;8.73;46.56;103045.91;4894471;28;114037;-71
2021/03/30 05:53:07;;;;;;;33.28;15.48;;;;;;;8.75;46.67;103054.72;4863910;28;123580;-72
2021/03/30 05:55:10;;;;;;;31.90;16.08;;;;;;;8.76;46.66;103061.78;4888567;28;124687;-72
2021/03/30 05:57:38;;;;;;;27.85;14.95;;;;;;;8.75;46.81;103052.06;4896536;28;114988;-72
2021/03/30 06:00:06;;;;;;;30.10;15.82;;;;;;;8.77;47.10;103054.72;4883477;28;114104;-72
2021/03/30 06:02:39;;;;;;;33.10;16.13;;;;;;;8.80;47.53;103061.75;4896743;28;124111;-72
2021/03/30 06:05:07;;;;;;;33.90;16.95;;;;;;;8.81;47.67;103053.81;4894374;28;123711;-72
2021/03/30 06:07:37;;;;;;;31.77;17.00;;;;;;;8.84;47.65;103068.81;4896127;28;114969;-72
2021/03/30 06:10:15;;;;;;;31.67;15.75;;;;;;;8.86;47.72;103061.75;4878638;28;113536;-72
2021/03/30 06:12:43;;;;;;;35.13;15.68;;;;;;;8.88;47.45;103060.00;4893113;28;123974;-72
2021/03/30 06:15:11;;;;;;;33.78;16.17;;;;;;;8.91;48.20;103070.53;4895977;28;123782;-72
2021/03/30 06:17:45;;;;;;;36.90;16.33;;;;;;;8.97;48.03;103070.53;4879144;28;113056;-72
2021/03/30 06:20:36;;;;;;;32.38;16.42;;;;;;;9.05;48.35;103074.03;4892065;28;111814;-72
2021/03/30 06:23:05;;;;;;;29.17;15.82;;;;;;;9.16;48.38;103072.22;4882265;28;123982;-72
2021/03/30 06:25:43;;;;;;;41.22;17.15;;;;;;;9.32;48.85;103078.38;4897700;28;124003;-72
2021/03/30 06:28:26;;;;;;;35.80;16.65;;;;;;;9.54;48.94;103079.13;4896460;28;114017;-72
2021/03/30 06:31:14;;;;;;;42.05;17.20;;;;;;;9.78;49.09;103077.25;4896801;28;113628;-72
2021/03/30 06:33:55;;;;;;;33.45;17.50;;;;;;;10.05;49.54;103080.63;4893445;28;124623;-72
2021/03/30 06:36:29;;;;;;;40.00;18.20;;;;;;;10.28;49.04;103078.69;4879758;28;123938;-72
2021/03/30 06:39:07;;;;;;;43.78;18.90;;;;;;;10.48;48.97;103075.03;4896109;28;114568;-72
2021/03/30 06:41:57;;;;;;;43.50;18.63;;;;;;;10.64;49.05;103076.66;4892149;28;114264;-72
2021/03/30 06:44:32;;;;;;;33.88;17.77;;;;;;;10.83;49.17;103079.09;4888953;28;124505;-71
2021/03/30 06:47:19;;;;;;;37.38;18.10;;;;;;;11.07;49.21;103076.19;4892582;28;124578;-72
2021/03/30 06:49:58;;;;;;;39.75;17.85;;;;;;;11.33;49.31;103082.09;4873618;28;114076;-72
2021/03/30 06:52:26;;;;;;;38.30;18.30;;;;;;;11.58;49.50;103093.28;4891025;28;113729;-72
2021/03/30 06:54:59;;;;;;;44.10;18.88;;;;;;;11.82;49.29;103087.63;4890379;28;123696;-72
2021/03/30 06:57:37;;;;;;;35.17;18.48;;;;;;;12.10;49.17;103094.38;4883723;28;122973;-72
2021/03/30 07:00:32;;;;;;;42.45;20.77;;;;;;;12.40;49.27;103090.34;4884046;28;114771;-72
2021/03/30 07:03:02;;;;;;;41.85;21.05;;;;;;;12.64;48.90;103084.59;4875395;28;114246;-72
2021/03/30 07:05:40;;;;;;;43.63;21.88;;;;;;;12.87;48.83;103091.28;4893917;28;124964;-72
2021/03/30 07:08:06;;;;;;;41.72;22.15;;;;;;;13.12;48.13;103085.50;4877018;28;123204;-72
2021/03/30 07:10:35;;;;;;;39.72;20.48;;;;;;;13.33;48.11;103090.41;4894981;28;113328;-72
2021/03/30 07:13:03;;;;;;;34.60;21.02;;;;;;;13.56;47.87;103091.72;4894205;28;114254;-72
2021/03/30 07:15:30;;;;;;;40.13;21.98;;;;;;;13.79;47.51;103084.09;4894288;28;124469;-73
2021/03/30 07:18:17;;;;;;;37.22;21.95;;;;;;;14.04;47.30;103086.19;4894515;28;124624;-73
2021/03/30 07:20:47;;;;;;;36.47;20.13;;;;;;;14.28;46.93;103086.50;4885534;28;114432;-73
2021/03/30 07:23:25;;;;;;;32.33;20.42;;;;;;;14.49;46.56;103085.97;4892857;28;113995;-73
2021/03/30 07:26:00;;;;;;;34.58;19.95;;;;;;;14.69;46.17;103081.94;4881924;28;124423;-72
2021/03/30 07:28:31;;;;;;;31.87;20.30;;;;;;;14.86;45.61;103085.06;4892837;28;124353;-73
2021/03/30 07:31:03;;;;;;;36.97;20.20;;;;;;;15.01;45.51;103093.53;4894721;28;115594;-72
2021/03/30 07:33:47;;;;;;;28.95;18.48;;;;;;;15.15;45.45;103091.38;4875827;28;114624;-73
2021/03/30 07:36:19;;;;;;;30.40;18.38;;;;;;;15.33;44.96;103096.19;4892648;28;123967;-73
2021/03/30 07:38:51;;;;;;;28.05;18.35;;;;;;;15.49;44.87;103101.09;4890908;28;124784;-73
2021/03/30 07:41:20;;;;;;;30.48;17.42;;;;;;;15.64;44.88;103100.63;4883124;28;113697;-73
2021/03/30 07:43:49;;;;;;;27.48;16.20;;;;;;;15.79;44.33;103093.09;4894620;28;114705;-74
2021/03/30 07:46:21;;;;;;;24.75;15.68;;;;;;;15.90;44.07;103096.31;4892439;28;124648;-73
2021/03/30 07:48:48;;;;;;;26.15;15.45;;;;;;;16.06;43.72;103096.69;4893263;28;124773;-73
2021/03/30 07:51:22;;;;;;;24.83;14.35;;;;;;;16.17;43.48;103104.38;4884647;28;115283;-73
2021/03/30 07:54:07;;;;;;;22.83;14.82;;;;;;;16.30;43.49;103095.03;4871334;28;114889;-74
2021/03/30 07:56:39;;;;;;;22.52;14.65;;;;;;;16.44;43.19;103103.44;4890172;28;123827;-73
2021/03/30 07:59:08;;;;;;;23.98;14.43;;;;;;;16.57;42.78;103103.91;4890411;28;123744;-72
2021/03/30 08:01:36;;;;;;;22.83;14.02;;;;;;;16.68;42.65;103101.72;4880256;28;114888;-73
2021/03/30 08:04:04;;;;;;;22.33;14.50;;;;;;;16.80;42.56;103100.47;4893114;28;114208;-73
2021/03/30 08:06:48;;;;;;;24.00;14.27;;;;;;;16.92;42.27;103105.38;4891177;28;124197;-73
2021/03/30 08:09:19;;;;;;;26.42;14.70;;;;;;;17.05;42.05;103105.84;4891578;28;124629;-74
2021/03/30 08:11:55;;;;;;;22.90;14.80;;;;;;;17.12;41.76;103101.09;4876442;28;114192;-74
2021/03/30 08:14:33;;;;;;;28.77;14.20;;;;;;;17.20;41.74;103099.03;4890858;28;113670;-74
2021/03/30 08:17:11;;;;;;;28.33;15.07;;;;;;;17.37;41.69;103100.22;4891316;28;123089;-73
2021/03/30 08:19:58;;;;;;;26.27;14.75;;;;;;;17.52;41.66;103094.28;4874053;28;124083;-75
2021/03/30 08:22:27;;;;;;;23.15;14.48;;;;;;;17.69;41.37;103093.63;4873784;28;114057;-74
2021/03/30 08:24:55;;;;;;;33.03;14.90;;;;;;;17.84;41.37;103095.72;4892610;28;114340;-73
2021/03/30 08:27:31;;;;;;;25.80;15.13;;;;;;;18.01;41.33;103102.25;4876180;28;123712;-75
2021/03/30 08:30:15;;;;;;;25.55;14.65;;;;;;;18.16;40.76;103089.97;4902122;28;123627;-75
2021/03/30 08:32:49;;;;;;;25.25;15.02;;;;;;;18.32;40.73;103091.09;4860836;28;113780;-75
2021/03/30 08:35:27;;;;;;;26.08;15.60;;;;;;;18.48;40.47;103092.22;4890403;28;114422;-75
2021/03/30 08:37:54;;;;;;;27.60;15.52;;;;;;;18.65;40.38;103101.34;4875008;28;123139;-75
2021/03/30 08:40:36;;;;;;;24.17;15.63;;;;;;;18.78;39.92;103099.88;4892811;28;124327;-75
2021/03/30 08:43:14;;;;;;;27.50;16.47;;;;;;;18.90;39.55;103100.31;4892111;28;115815;-76
2021/03/30 08:46:00;;;;;;;;;;;;;;;18.99;40.09;103097.22;4885233;28;114386;-75
2021/03/30 08:48:36;;;;;;;26.77;16.33;;;;;;;19.13;39.54;103100.16;4892910;28;123910;-76
2021/03/30 08:51:06;;;;;;;30.13;16.77;;;;;;;19.26;39.08;103104.00;4892242;28;123772;-73
2021/03/30 08:53:34;;;;;;;36.35;16.77;;;;;;;19.36;39.12;103100.91;4892592;28;114165;-73
2021/03/30 08:56:06;;;;;;;31.10;16.80;;;;;;;19.47;38.66;103103.97;4892701;28;113477;-75
2021/03/30 08:58:41;;;;;;;32.45;17.40;;;;;;;19.59;38.14;103108.78;4888253;28;123045;-74
2021/03/30 09:01:08;;;;;;;33.22;17.65;;;;;;;19.71;38.19;103101.09;4885236;28;124022;-74
2021/03/30 09:03:34;;;;;;;30.70;18.40;;;;;;;19.81;38.05;103113.16;4877136;28;113654;-74
2021/03/30 09:06:01;;;;;;;30.33;17.60;;;;;;;19.89;37.65;103094.84;4873515;28;114136;-74
2021/03/30 09:08:35;;;;;;;34.92;18.48;;;;;;;20.00;37.70;103097.91;4886286;28;124677;-73
2021/03/30 09:11:19;;;;;;;30.43;18.73;;;;;;;20.12;38.11;103103.63;4872327;28;124868;-73
2021/03/30 09:14:17;;;;;;;29.73;18.67;;;;;;;20.22;37.63;103102.19;4863746;28;114259;-74
2021/03/30 09:16:47;;;;;;;30.02;19.27;;;;;;;20.34;37.60;103104.28;4878399;28;114108;-74
2021/03/30 09:19:17;;;;;;;28.67;18.45;;;;;;;20.44;37.36;103102.00;4892539;28;124532;-74
2021/03/30 09:21:48;;;;;;;31.52;18.65;;;;;;;20.50;36.64;103104.38;4918267;23;98954;-70
2021/03/30 09:24:33;;;;;;;32.08;19.23;;;;;;;20.54;36.48;103103.25;4873105;28;113987;-72
2021/03/30 09:27:02;;;;;;;;;;;;;;;20.61;37.31;103109.25;4876895;28;113941;-72
2021/03/30 09:29:31;;;;;;;32.10;19.38;;;;;;;20.70;36.92;103098.00;4876155;28;124540;-72
2021/03/30 09:31:58;;;;;;;31.08;20.00;;;;;;;20.81;37.14;103102.81;4872272;28;123115;-72
2021/03/30 09:34:25;;;;;;;34.33;20.77;;;;;;;20.94;36.54;103100.34;4881492;28;115372;-72
2021/03/30 09:36:52;;;;;;;35.67;20.95;;;;;;;21.04;36.08;103101.63;4874272;28;114274;-72
2021/03/30 09:39:25;;;;;;;42.72;24.95;;;;;;;21.12;35.16;103099.38;4892944;28;124371;-72
2021/03/30 09:41:53;;;;;;;39.50;22.85;;;;;;;21.21;35.75;103098.00;4892248;28;123972;-72
2021/03/30 09:44:22;;;;;;;35.70;23.05;;;;;;;21.33;35.81;103096.47;4880766;28;114153;-72
2021/03/30 09:46:55;;;;;;;38.40;24.65;;;;;;;21.48;35.54;103095.63;4893301;28;114328;-72
2021/03/30 09:49:24;;;;;;;40.35;24.40;;;;;;;21.63;34.82;103093.06;4892470;28;124512;-72
2021/03/30 09:51:52;;;;;;;36.85;24.17;;;;;;;21.77;35.03;103093.13;4875970;28;123682;-72
2021/03/30 09:54:22;;;;;;;41.75;24.67;;;;;;;21.92;34.40;103094.94;4893074;28;114738;-72
2021/03/30 09:56:56;;;;;;;41.08;23.17;;;;;;;22.05;33.57;103089.72;4892427;28;114482;-72
2021/03/30 09:59:23;;;;;;;40.28;24.08;;;;;;;22.12;33.51;103088.41;4891189;28;124141;-72
2021/03/30 10:01:50;;;;;;;38.72;24.20;;;;;;;22.18;33.42;103089.88;4892262;28;124332;-72
2021/03/30 10:04:17;;;;;;;35.83;23.73;;;;;;;22.23;32.65;103090.47;4892227;28;114179;-72
2021/03/30 10:06:43;;;;;;;38.47;23.42;;;;;;;22.32;32.76;103079.16;4884836;28;114941;-72
2021/03/30 10:09:10;;;;;;;41.55;23.80;;;;;;;22.42;32.41;103081.34;4873077;28;124845;-72
2021/03/30 10:11:37;;;;;;;33.42;22.45;;;;;;;22.47;32.65;103079.19;4874068;28;124021;-72
2021/03/30 10:14:22;;;;;;;39.67;23.65;;;;;;;22.57;32.79;103080.41;4892880;28;114487;-72
2021/03/30 10:16:50;;;;;;;34.45;22.42;;;;;;;22.70;31.88;103067.88;4876082;28;113819;-72
2021/03/30 10:19:18;;;;;;;31.20;21.55;;;;;;;22.81;31.60;103071.75;4874916;28;122180;-72
2021/03/30 10:21:48;;;;;;;30.63;20.13;;;;;;;22.91;30.78;103067.53;4891491;28;124654;-72
2021/03/30 10:24:16;;;;;;;31.33;21.45;;;;;;;22.96;30.44;103068.09;4891951;28;115404;-72
2021/03/30 10:27:00;;;;;;;30.00;19.50;;;;;;;23.00;30.69;103066.94;4893210;28;114641;-72
2021/03/30 10:29:37;;;;;;;28.58;17.60;;;;;;;23.07;29.92;103068.31;4878066;28;123960;-72
2021/03/30 10:32:15;;;;;;;25.30;18.45;;;;;;;23.13;30.79;103062.53;4893576;28;128777;-72
2021/03/30 10:34:42;;;;;;;31.42;20.30;;;;;;;23.27;31.10;103060.78;4894775;28;114117;-72
2021/03/30 10:37:13;;;;;;;29.05;19.33;;;;;;;23.40;30.85;103059.03;4900560;28;114249;-72
2021/03/30 10:39:44;;;;;;;29.60;18.88;;;;;;;23.54;30.96;103057.28;4872968;28;123974;-71
2021/03/30 10:42:13;;;;;;;25.63;16.67;;;;;;;23.66;29.69;103054.63;4889907;28;123693;-72
2021/03/30 10:44:43;;;;;;;28.65;19.88;;;;;;;23.75;29.62;103053.16;4871204;28;114440;-72
2021/03/30 10:47:14;;;;;;;31.98;20.45;;;;;;;23.80;29.36;103051.03;4877387;28;115074;-72
2021/03/30 10:49:41;;;;;;;30.40;19.83;;;;;;;23.85;29.69;103054.31;4891875;28;124965;-72
2021/03/30 10:52:30;;;;;;;25.88;17.23;;;;;;;23.89;29.51;103055.84;4876560;28;123859;-72
2021/03/30 10:54:59;;;;;;;29.00;17.75;;;;;;;23.95;29.49;103053.72;4873518;28;114341;-72
2021/03/30 10:57:32;;;;;;;24.02;14.93;;;;;;;23.95;29.35;103037.47;4894361;28;113776;-72
2021/03/30 11:00:00;;;;;;;24.80;17.02;;;;;;;24.00;28.67;103038.91;4880632;28;124057;-72
2021/03/30 11:02:26;;;;;;;25.77;17.85;;;;;;;24.08;29.28;103032.97;4893422;28;124902;-71
2021/03/30 11:04:53;;;;;;;23.67;15.60;;;;;;;24.15;28.47;103031.56;4895463;28;114111;-72
2021/03/30 11:07:20;;;;;;;24.88;14.02;;;;;;;24.22;28.54;103035.59;4881493;28;113218;-72
2021/03/30 11:09:46;;;;;;;27.25;16.60;;;;;;;24.32;28.24;103029.53;4892709;28;124331;-72
2021/03/30 11:12:13;;;;;;;35.40;17.15;;;;;;;24.36;27.33;103025.66;4894577;28;124181;-72
2021/03/30 11:14:40;;;;;;;27.50;16.70;;;;;;;24.35;27.67;103023.91;4875930;28;113301;-72
2021/03/30 11:17:07;;;;;;;27.08;17.08;;;;;;;24.37;27.47;103030.09;4894462;28;114272;-72
2021/03/30 11:19:34;;;;;;;24.02;16.55;;;;;;;24.41;27.48;103028.91;4892855;28;124758;-72
2021/03/30 11:22:02;;;;;;;23.58;14.82;;;;;;;24.46;26.67;103022.19;4894454;28;123920;-72
2021/03/30 11:24:31;;;;;;;23.17;13.52;;;;;;;24.49;26.12;103010.28;4900042;28;114627;-71